Terminal Aerodrome Forecast
Issued by NWS

Home | Current Version | Previous Version | Text Only | Print | Product List | Glossary On
Versions: 1 2 3 4 5 6 7 8 9 10 11 12 13 14 15 16 17 18
000
FTUS43 KIND 191400 AAA
TAFHUF
TAF AMD
KHUF 191422Z 1914/2012 VRB03KT P6SM SCT020
     FM191700 VRB04KT P6SM BKN025
     FM200500 00000KT P6SM BKN025=

USA.gov is the U.S. government's official web portal to all federal, state and local government web resources and services.